Delta, Utah Weather observations

Data are for observation ending at time listed.
 Day   Time    Ave.   Ave.  Ave.  Vector   Max.   Stn.    Total    Solar   Ave.  
  of    of     Air    Rel.  Wind   Wind    Wind   Baro.  Precip.   Rad.    Soil  
Year   Day     Temp.  Hum.  Speed  Dir.    Gust   Pres.                    Temp. 
2016   (MST)    F      %     mph   deg.    mph     mb.     in.     W/m2     F   
------------------------------------------------------------------------------
 342    8:40   20.4    74    0.8    16      2.2   864.8    0.00      44    33.1
 342    8:50   21.4    71    1.2   359      2.9   864.9    0.00      66    33.1
 342    9:00   21.7    69    2.8   356      4.2   865.1    0.00      68    33.0
 342    9:10   22.2    68    3.0   352      4.6   865.2    0.00      90    33.0
 342    9:20   22.2    67    3.1   352      5.6   865.4    0.00      91    33.1
 342    9:30   22.5    66    3.5     3      7.5   865.7    0.00     123    33.1
 342    9:40   23.3    64    3.5   355      5.8   865.9    0.00     248    33.0
 342    9:50   25.0    59    3.7   352      8.5   866.1    0.00     228    33.1
 342   10:00   25.2    57    3.5   343      6.1   866.2    0.00     146    33.1
 342   10:10   25.4    56    3.4   340      6.4   866.4    0.00     181    33.1
 342   10:20   25.9    54    4.4   346      7.8   866.5    0.00     207    33.2
 342   10:30   25.7    53    3.8   351      6.7   866.5    0.00     207    33.2
 342   10:40   26.2    51    4.3   340      8.6   866.6    0.00     202    33.2
 342   10:50   26.6    47    4.9   354      8.6   866.7    0.00     290    33.2
 342   11:00   27.1    46    4.1   348     10.3   866.7    0.00     240    33.2
 342   11:10   26.8    45    4.2   348      9.2   866.7    0.00     258    33.2
 342   11:20   26.7    44    4.5   347      7.3   866.7    0.00     144    33.2
 342   11:30   26.4    44    3.6   353      8.1   866.7    0.00     228    33.2
 342   11:40   27.6    41    4.0   317      7.7   866.6    0.00     247    33.2
 342   11:50   27.4    39    3.4   338      7.1   866.5    0.00     150    33.2
 342   12:00   27.8    38    3.0   321      5.7   866.4    0.00      82    33.1
 342   12:10   28.7    36    3.2    21      8.3   866.4    0.00      82    33.3
 342   12:20   29.0    34    4.6     2      8.0   866.4    0.00     127    33.1
 342   12:30   29.2    34    3.9    23     10.6   866.4    0.00     233    33.2
 342   12:40   29.3    34    3.9   347      8.6   866.3    0.00     155    33.2
 342   12:50   29.2    34    3.1   345      7.0   866.3    0.00     193    33.1
 342   13:00   29.4    34    3.7    11      8.0   866.3    0.00     279    33.3
 342   13:10   29.4    35    4.3    14      8.5   866.3    0.00     156    33.2
 342   13:20   29.7    35    3.6     7      7.6   866.2    0.00     190    33.2
 342   13:30   30.1    34    3.3   308      6.7   866.1    0.00     191    33.2
 342   13:40   30.2    33    3.9   348      8.9   866.1    0.00     209    33.1
 342   13:50   30.6    33    2.6   327      6.6   866.0    0.00     107    33.1
 342   14:00   30.4    32    3.9   359      8.7   866.1    0.00     146    33.2
 342   14:10   30.3    32    3.8   336      7.7   866.1    0.00     152    33.2
 342   14:20   30.9    31    3.0   336      7.1   866.1    0.00      85    33.2
 342   14:30   31.1    31    3.3    16      7.0   866.1    0.00      71    33.2
 342   14:40   30.4    32    3.6    14      7.2   866.2    0.00      99    33.1
 342   14:50   30.4    31    3.0     8      7.5   866.1    0.00      77    33.2
 342   15:00   30.4    31    2.7    10      5.6   866.2    0.00     148    33.2
 342   15:10   30.3    31    2.9    51      8.0   866.2    0.00     185    33.2
 342   15:20   30.3    32    2.9    23      7.2   866.2    0.00     123    33.2
 342   15:30   30.5    32    2.7   355      7.4   866.2    0.00     173    33.1
 342   15:40   30.9    30    3.4     4      6.9   866.3    0.00     149    33.1
 342   15:50   30.7    31    2.5   332      6.1   866.3    0.00      76    33.2
 342   16:00   30.5    31    2.4   318      4.6   866.4    0.00      51    33.1
 342   16:10   29.8    32    2.3   342      4.6   866.5    0.00      36    33.2
 342   16:20   29.5    32    2.2    14      4.5   866.6    0.00      32    33.3
 342   16:30   29.2    32    2.3   358      5.6   866.6    0.00      17    33.2
 342   16:40   29.2    32    2.6   325      5.1   866.6    0.00      17    33.2
 342   16:50   29.1    32    2.6   309      4.9   866.7    0.00      15    33.2
 342   17:00   28.5    33    2.5   326      4.7   866.8    0.00       7    33.3
 342   17:10   27.8    34    1.9   324      3.8   866.8    0.00       6    32.7
 342   17:20   27.2    35    2.0   331      4.5   866.8    0.00       0    32.4
 342   17:30   26.5    36    2.1   341      3.6   866.9    0.00       0    32.9
 342   17:40   25.8    37    2.1   355      4.2   866.9    0.00       0    32.9
 342   17:50   25.0    38    2.4     0      4.2   866.9    0.00       0    33.0
 342   18:00   24.3    41    1.9   341      4.5   866.8    0.00       0    34.2
 342   18:10   23.7    41    2.6     8      4.6   866.9    0.00       0    33.2
 342   18:20   23.1    41    2.7     6      5.8   866.9    0.00       0    32.8
 342   18:30   22.5    42    3.2    10      5.8   867.0    0.00       0    32.7
 342   18:40   21.7    42    3.0   358      5.9   867.1    0.00       0    32.0
 342   18:50   21.4    42    3.0     6      5.5   867.1    0.00       0    34.5
 342   19:00   20.7    43    2.5    10      6.1   867.2    0.00       0    32.9
 342   19:10   20.3    44    2.8     6      5.2   867.2    0.00       0    33.3
 342   19:20   20.1    45    1.9    18      4.5   867.2    0.00       0    33.4
 342   19:30   20.3    44    2.5    10      6.0   867.3    0.00       0    33.0
 342   19:40   20.2    45    2.8    13      5.6   867.5    0.00       0    30.7
 342   19:50   20.2    45    2.8    16      6.1   867.4    0.00       0    33.7
 342   20:00   20.1    45    2.5    43      6.6   867.5    0.00       0    33.1
 342   20:10   19.4    47    1.6     3      3.7   867.4    0.00       0    33.7
 342   20:20   19.4    47    2.1    17      4.2   867.3    0.00       0    32.2
 342   20:30   18.9    48    1.7    45      3.5   867.2    0.00       0    33.1
 342   20:40   18.6    49    1.5    40      4.1   866.9    0.00       0    33.0
 342   20:50   18.7    49    2.5     8      4.8   866.9    0.00       0    33.1
 342   21:00   18.7    50    2.1     7      4.5   867.1    0.00       0    32.7
 342   21:10   18.5    50    2.5     6      5.1   867.1    0.00       0    32.9
 342   21:20   17.8    51    2.2   350      3.1   867.1    0.00       0    33.0
 342   21:30   16.8    53    2.2   325      3.2   867.0    0.00       0    33.0
 342   21:40   16.1    54    2.1   331      3.4   867.2    0.00       0    33.0
 342   21:50   15.7    56    2.0   330      3.9   867.3    0.00       0    33.0
 342   22:00   15.4    56    2.1   325      4.3   867.4    0.00       0    33.0
 342   22:10   15.1    57    1.7   318      3.2   867.6    0.00       0    32.5
 342   22:20   14.8    57    1.9   328      2.9   867.6    0.00       0    33.1
 342   22:30   14.3    58    2.5   344      5.2   867.5    0.00       0    32.8
 342   22:40   14.0    59    2.4   344      4.4   867.6    0.00       0    32.8
 342   22:50   13.9    60    2.9   339      5.3   867.6    0.00       0    32.9
 342   23:00   13.9    61    3.3   341      5.6   867.6    0.00       0    31.5
 342   23:10   13.9    62    3.3   344      6.6   867.5    0.00       0    32.4
 342   23:20   14.3    62    2.9   347      4.9   867.5    0.00       0    33.5
 342   23:30   14.4    63    2.4   353      4.2   867.5    0.00       0    32.8
 342   23:40   14.6    63    2.5   354      4.4   867.5    0.00       0    32.8
 342   23:50   14.7    64    2.1   359      4.2   867.3    0.00       0    33.1
 343    0:00   14.8    63    2.8   359      4.8   867.2    0.00       0    30.7
 343    0:10   14.9    63    1.4    13      2.9   867.1    0.00       0    33.2
 343    0:20   14.7    64    1.8     3      3.1   867.1    0.00       0    32.9
 343    0:30   14.6    64    1.7     2      4.0   867.0    0.00       0    33.0
 343    0:40   14.6    65    1.8     2      3.7   867.0    0.00       0    32.7
 343    0:50   14.6    65    1.1    49      3.4   866.9    0.00       0    32.8
 343    1:00   14.7    65    0.6    14      2.2   867.0    0.00       0    32.8
 343    1:10   14.8    65    0.0    76      1.1   867.1    0.00       0    32.7
 343    1:20   15.2    66    0.4   356      1.5   867.2    0.00       0    32.7
 343    1:30   15.6    66    1.4   350      3.3   867.3    0.00       0    32.6
 343    1:40   15.7    66    2.0    23      3.3   867.3    0.00       0    32.6
 343    1:50   15.6    67    2.0    61      3.6   867.2    0.00       0    32.7
 343    2:00   15.4    66    2.1    98      3.3   867.1    0.00       0    32.7
 343    2:10   14.8    64    2.2    99      4.3   867.0    0.00       0    32.7
 343    2:20   14.9    62    1.9   102      3.6   867.0    0.00       0    32.6
 343    2:30   15.3    62    1.9   116      3.1   867.1    0.00       0    32.7
 343    2:40   15.3    62    2.3   112      3.8   866.9    0.00       0    32.6
 343    2:50   15.3    63    2.5   108      3.7   866.7    0.00       0    32.6
 343    3:00   15.5    63    1.7   117      3.1   866.9    0.00       0    32.7
 343    3:10   15.8    62    1.6   114      2.9   866.9    0.00       0    32.7
 343    3:20   16.2    60    1.0   140      2.1   867.1    0.00       0    32.7
 343    3:30   16.3    60    1.1   119      1.8   867.0    0.00       0    32.7
 343    3:40   16.5    60    1.5   141      2.4   867.0    0.00       0    32.6
 343    3:50   16.6    59    1.3   143      2.4   867.0    0.00       0    32.6
 343    4:00   16.8    59    1.7   106      2.8   866.9    0.00       0    32.7
 343    4:10   17.1    59    2.4    99      3.4   866.7    0.00       0    32.6
 343    4:20   17.0    59    2.3   102      3.5   866.6    0.00       0    32.5
 343    4:30   16.7    60    2.3    69      3.4   866.6    0.00       0    32.7
 343    4:40   16.8    61    2.2    97      3.8   866.4    0.00       0    32.7
 343    4:50   17.2    60    1.4   137      3.4   866.7    0.00       0    32.7
 343    5:00   17.4    58    2.0   144      3.1   866.7    0.00       0    32.6
 343    5:10   17.3    58    2.0   137      3.1   866.6    0.00       0    32.6
 343    5:20   17.3    59    1.3   157      2.6   866.8    0.00       0    32.8
 343    5:30   17.5    59    1.4   149      2.6   866.7    0.00       0    32.6
 343    5:40   17.6    59    1.6   162      2.8   866.7    0.00       0    32.6
 343    5:50   17.5    60    2.0   142      3.1   866.7    0.00       0    32.6
 343    6:00   17.4    60    2.4   138      3.9   866.5    0.00       0    32.6
 343    6:10   17.6    61    1.8   106      2.7   866.6    0.00       0    32.6
 343    6:20   17.8    60    0.9   113      2.5   866.8    0.00       0    32.6
 343    6:30   17.7    59    1.5   112      3.2   866.6    0.00       0    32.6
 343    6:40   17.7    61    1.8   112      3.4   866.4    0.00       0    32.5
 343    6:50   17.8    61    1.1   117      2.4   866.6    0.00       0    32.6
 343    7:00   18.0    61    0.9   170      3.2   866.8    0.00       0    32.5
 343    7:10   18.1    60    1.8   169      2.9   866.7    0.00       0    32.6
 343    7:20   18.0    60    2.2   156      3.4   866.5    0.00       0    32.6
 343    7:30   18.2    59    1.5   189      2.4   866.7    0.00       0    32.5
 343    7:40   18.2    59    1.4   187      2.6   866.6    0.00       0    32.5
 343    7:50   18.1    58    0.9   207      2.2   866.6    0.00       1    32.6
 343    8:00   18.2    58    0.8   232      2.0   866.5    0.00       6    32.5
 343    8:10   18.4    57    0.6   266      2.3   866.6    0.00      12    32.5
 343    8:20   18.6    56    0.7   266      2.0   866.9    0.00      15    32.5
 343    8:30   18.7    56    1.2   173      2.6   866.6    0.00      34    32.6

Return to Delta, Utah graphs page.


Western Regional Climate Center,wrcc@dri.edu